sensor_id;sensor_type;location;lat;lon;timestamp;P1;durP1;ratioP1;P2;durP2;ratioP2
71610;SDS011;59459;51.172;6.682;2023-03-21T00:02:23;13.43;;;3.87;;
71610;SDS011;59459;51.172;6.682;2023-03-21T00:04:49;9.68;;;3.97;;
71610;SDS011;59459;51.172;6.682;2023-03-21T00:07:14;12.47;;;4.23;;
71610;SDS011;59459;51.172;6.682;2023-03-21T00:09:39;12.23;;;4.90;;
71610;SDS011;59459;51.172;6.682;2023-03-21T00:12:04;11.50;;;4.13;;
71610;SDS011;59459;51.172;6.682;2023-03-21T00:14:33;11.32;;;4.45;;
71610;SDS011;59459;51.172;6.682;2023-03-21T00:16:58;12.30;;;4.33;;
71610;SDS011;59459;51.172;6.682;2023-03-21T00:19:24;14.93;;;4.40;;
71610;SDS011;59459;51.172;6.682;2023-03-21T00:21:50;11.52;;;4.20;;
71610;SDS011;59459;51.172;6.682;2023-03-21T00:24:16;11.77;;;4.45;;
71610;SDS011;59459;51.172;6.682;2023-03-21T00:26:41;15.00;;;4.87;;
71610;SDS011;59459;51.172;6.682;2023-03-21T00:29:07;10.90;;;5.00;;
71610;SDS011;59459;51.172;6.682;2023-03-21T00:31:32;11.53;;;4.77;;
71610;SDS011;59459;51.172;6.682;2023-03-21T00:33:58;14.97;;;4.83;;
71610;SDS011;59459;51.172;6.682;2023-03-21T00:36:23;14.70;;;4.87;;
71610;SDS011;59459;51.172;6.682;2023-03-21T00:38:49;13.27;;;4.97;;
71610;SDS011;59459;51.172;6.682;2023-03-21T00:41:15;13.77;;;4.65;;
71610;SDS011;59459;51.172;6.682;2023-03-21T00:43:40;12.97;;;5.30;;
71610;SDS011;59459;51.172;6.682;2023-03-21T00:46:05;12.93;;;5.53;;
71610;SDS011;59459;51.172;6.682;2023-03-21T00:48:31;20.27;;;5.60;;
71610;SDS011;59459;51.172;6.682;2023-03-21T00:50:56;12.23;;;5.13;;
71610;SDS011;59459;51.172;6.682;2023-03-21T00:53:23;14.00;;;5.13;;
71610;SDS011;59459;51.172;6.682;2023-03-21T00:55:48;17.57;;;5.93;;
71610;SDS011;59459;51.172;6.682;2023-03-21T00:58:14;15.30;;;5.23;;
71610;SDS011;59459;51.172;6.682;2023-03-21T01:00:39;16.57;;;4.90;;
71610;SDS011;59459;51.172;6.682;2023-03-21T01:03:05;13.35;;;5.10;;
71610;SDS011;59459;51.172;6.682;2023-03-21T01:05:32;11.85;;;4.70;;
71610;SDS011;59459;51.172;6.682;2023-03-21T01:08:17;16.50;;;5.43;;
71610;SDS011;59459;51.172;6.682;2023-03-21T01:10:44;14.53;;;4.83;;
71610;SDS011;59459;51.172;6.682;2023-03-21T01:13:10;13.90;;;5.13;;
71610;SDS011;59459;51.172;6.682;2023-03-21T01:15:36;16.23;;;5.25;;
71610;SDS011;59459;51.172;6.682;2023-03-21T01:18:01;14.37;;;4.57;;
71610;SDS011;59459;51.172;6.682;2023-03-21T01:20:26;14.77;;;5.60;;
71610;SDS011;59459;51.172;6.682;2023-03-21T01:22:52;12.25;;;4.85;;
71610;SDS011;59459;51.172;6.682;2023-03-21T01:25:17;16.33;;;5.43;;
71610;SDS011;59459;51.172;6.682;2023-03-21T01:27:43;12.83;;;4.87;;
71610;SDS011;59459;51.172;6.682;2023-03-21T01:30:08;20.87;;;4.67;;
71610;SDS011;59459;51.172;6.682;2023-03-21T01:32:33;19.90;;;6.07;;
71610;SDS011;59459;51.172;6.682;2023-03-21T01:34:59;15.47;;;5.83;;
71610;SDS011;59459;51.172;6.682;2023-03-21T01:37:24;13.73;;;4.47;;
71610;SDS011;59459;51.172;6.682;2023-03-21T01:39:50;16.02;;;6.07;;
71610;SDS011;59459;51.172;6.682;2023-03-21T01:42:15;15.53;;;5.43;;
71610;SDS011;59459;51.172;6.682;2023-03-21T01:44:55;14.87;;;4.90;;
71610;SDS011;59459;51.172;6.682;2023-03-21T01:47:21;14.35;;;5.38;;
71610;SDS011;59459;51.172;6.682;2023-03-21T01:49:48;14.60;;;5.37;;
71610;SDS011;59459;51.172;6.682;2023-03-21T01:52:16;16.67;;;5.47;;
71610;SDS011;59459;51.172;6.682;2023-03-21T01:54:42;17.73;;;5.20;;
71610;SDS011;59459;51.172;6.682;2023-03-21T01:57:10;13.65;;;5.10;;
71610;SDS011;59459;51.172;6.682;2023-03-21T01:59:46;15.10;;;5.55;;
71610;SDS011;59459;51.172;6.682;2023-03-21T02:02:15;16.58;;;5.22;;
71610;SDS011;59459;51.172;6.682;2023-03-21T02:04:44;17.63;;;5.40;;
71610;SDS011;59459;51.172;6.682;2023-03-21T02:07:14;13.68;;;4.88;;
71610;SDS011;59459;51.172;6.682;2023-03-21T02:09:43;16.25;;;5.93;;
71610;SDS011;59459;51.172;6.682;2023-03-21T02:12:10;18.98;;;6.00;;
71610;SDS011;59459;51.172;6.682;2023-03-21T02:14:35;17.10;;;5.90;;
71610;SDS011;59459;51.172;6.682;2023-03-21T02:17:14;12.88;;;4.82;;
71610;SDS011;59459;51.172;6.682;2023-03-21T02:27:44;13.88;;;5.25;;
71610;SDS011;59459;51.172;6.682;2023-03-21T02:40:33;14.17;;;5.00;;
71610;SDS011;59459;51.172;6.682;2023-03-21T02:45:25;17.23;;;5.77;;
71610;SDS011;59459;51.172;6.682;2023-03-21T02:47:57;15.75;;;5.15;;
71610;SDS011;59459;51.172;6.682;2023-03-21T02:50:45;17.88;;;5.20;;
71610;SDS011;59459;51.172;6.682;2023-03-21T02:53:10;14.93;;;5.50;;
71610;SDS011;59459;51.172;6.682;2023-03-21T02:55:37;14.00;;;5.15;;
71610;SDS011;59459;51.172;6.682;2023-03-21T02:58:05;15.00;;;5.43;;
71610;SDS011;59459;51.172;6.682;2023-03-21T03:00:31;13.85;;;5.15;;
71610;SDS011;59459;51.172;6.682;2023-03-21T03:02:57;19.50;;;5.28;;
71610;SDS011;59459;51.172;6.682;2023-03-21T03:05:24;15.17;;;5.20;;
71610;SDS011;59459;51.172;6.682;2023-03-21T03:08:02;14.20;;;4.90;;
71610;SDS011;59459;51.172;6.682;2023-03-21T03:12:58;15.80;;;5.30;;
71610;SDS011;59459;51.172;6.682;2023-03-21T03:15:44;19.90;;;4.90;;
71610;SDS011;59459;51.172;6.682;2023-03-21T03:18:39;13.05;;;5.25;;
71610;SDS011;59459;51.172;6.682;2023-03-21T03:26:29;16.73;;;5.78;;
71610;SDS011;59459;51.172;6.682;2023-03-21T03:28:54;21.10;;;6.60;;
71610;SDS011;59459;51.172;6.682;2023-03-21T03:31:23;15.35;;;4.95;;
71610;SDS011;59459;51.172;6.682;2023-03-21T03:33:50;16.35;;;5.57;;
71610;SDS011;59459;51.172;6.682;2023-03-21T03:36:17;15.73;;;5.50;;
71610;SDS011;59459;51.172;6.682;2023-03-21T03:38:45;16.98;;;5.40;;
71610;SDS011;59459;51.172;6.682;2023-03-21T03:41:20;15.20;;;5.23;;
71610;SDS011;59459;51.172;6.682;2023-03-21T03:43:47;14.60;;;5.47;;
71610;SDS011;59459;51.172;6.682;2023-03-21T03:46:20;21.63;;;5.78;;
71610;SDS011;59459;51.172;6.682;2023-03-21T03:48:49;15.63;;;5.10;;
71610;SDS011;59459;51.172;6.682;2023-03-21T03:51:21;15.18;;;6.10;;
71610;SDS011;59459;51.172;6.682;2023-03-21T03:53:52;18.20;;;5.63;;
71610;SDS011;59459;51.172;6.682;2023-03-21T03:56:19;14.10;;;5.20;;
71610;SDS011;59459;51.172;6.682;2023-03-21T03:58:45;18.20;;;5.97;;
71610;SDS011;59459;51.172;6.682;2023-03-21T04:01:10;16.27;;;5.43;;
71610;SDS011;59459;51.172;6.682;2023-03-21T04:03:36;16.83;;;5.50;;
71610;SDS011;59459;51.172;6.682;2023-03-21T04:06:03;14.55;;;5.05;;
71610;SDS011;59459;51.172;6.682;2023-03-21T04:08:28;14.87;;;5.30;;
71610;SDS011;59459;51.172;6.682;2023-03-21T04:10:54;12.75;;;4.55;;
71610;SDS011;59459;51.172;6.682;2023-03-21T04:13:20;16.57;;;4.50;;
71610;SDS011;59459;51.172;6.682;2023-03-21T04:15:45;16.80;;;5.07;;
71610;SDS011;59459;51.172;6.682;2023-03-21T04:18:10;15.23;;;5.63;;
71610;SDS011;59459;51.172;6.682;2023-03-21T04:20:35;12.20;;;4.73;;
71610;SDS011;59459;51.172;6.682;2023-03-21T04:23:00;11.70;;;4.70;;
71610;SDS011;59459;51.172;6.682;2023-03-21T04:25:26;15.40;;;5.13;;
71610;SDS011;59459;51.172;6.682;2023-03-21T04:27:52;12.37;;;4.80;;
71610;SDS011;59459;51.172;6.682;2023-03-21T04:30:19;17.63;;;5.47;;
71610;SDS011;59459;51.172;6.682;2023-03-21T04:32:44;14.63;;;5.50;;
71610;SDS011;59459;51.172;6.682;2023-03-21T04:35:17;14.93;;;5.20;;
71610;SDS011;59459;51.172;6.682;2023-03-21T04:37:43;13.60;;;4.87;;
71610;SDS011;59459;51.172;6.682;2023-03-21T04:40:08;16.13;;;5.00;;
71610;SDS011;59459;51.172;6.682;2023-03-21T04:42:34;13.35;;;5.38;;
71610;SDS011;59459;51.172;6.682;2023-03-21T04:45:00;19.30;;;5.83;;
71610;SDS011;59459;51.172;6.682;2023-03-21T04:47:26;13.23;;;4.87;;
71610;SDS011;59459;51.172;6.682;2023-03-21T04:49:51;16.88;;;5.20;;
71610;SDS011;59459;51.172;6.682;2023-03-21T04:52:17;12.23;;;5.45;;
71610;SDS011;59459;51.172;6.682;2023-03-21T04:54:43;14.00;;;4.90;;
71610;SDS011;59459;51.172;6.682;2023-03-21T04:57:08;10.93;;;4.63;;
71610;SDS011;59459;51.172;6.682;2023-03-21T04:59:34;11.93;;;5.77;;
71610;SDS011;59459;51.172;6.682;2023-03-21T05:01:59;14.13;;;5.20;;
71610;SDS011;59459;51.172;6.682;2023-03-21T05:04:25;15.30;;;5.33;;
71610;SDS011;59459;51.172;6.682;2023-03-21T05:06:51;16.98;;;5.32;;
71610;SDS011;59459;51.172;6.682;2023-03-21T05:09:16;14.43;;;5.13;;
71610;SDS011;59459;51.172;6.682;2023-03-21T05:11:42;17.07;;;6.30;;
71610;SDS011;59459;51.172;6.682;2023-03-21T05:14:08;14.30;;;6.00;;
71610;SDS011;59459;51.172;6.682;2023-03-21T05:16:34;14.57;;;5.43;;
71610;SDS011;59459;51.172;6.682;2023-03-21T05:19:00;13.43;;;6.00;;
71610;SDS011;59459;51.172;6.682;2023-03-21T05:21:32;14.40;;;6.10;;
71610;SDS011;59459;51.172;6.682;2023-03-21T05:24:05;17.25;;;6.10;;
71610;SDS011;59459;51.172;6.682;2023-03-21T05:26:35;17.30;;;6.97;;
71610;SDS011;59459;51.172;6.682;2023-03-21T05:29:01;17.23;;;5.80;;
71610;SDS011;59459;51.172;6.682;2023-03-21T05:31:26;13.73;;;5.90;;
71610;SDS011;59459;51.172;6.682;2023-03-21T05:33:51;20.50;;;7.07;;
71610;SDS011;59459;51.172;6.682;2023-03-21T05:36:16;17.50;;;5.73;;
71610;SDS011;59459;51.172;6.682;2023-03-21T05:38:41;15.90;;;6.03;;
71610;SDS011;59459;51.172;6.682;2023-03-21T05:41:09;16.15;;;6.25;;
71610;SDS011;59459;51.172;6.682;2023-03-21T05:43:35;14.97;;;6.23;;
71610;SDS011;59459;51.172;6.682;2023-03-21T05:46:00;18.60;;;6.70;;
71610;SDS011;59459;51.172;6.682;2023-03-21T05:48:25;16.13;;;6.90;;
71610;SDS011;59459;51.172;6.682;2023-03-21T05:50:51;15.50;;;6.63;;
71610;SDS011;59459;51.172;6.682;2023-03-21T05:53:17;17.70;;;5.80;;
71610;SDS011;59459;51.172;6.682;2023-03-21T05:55:42;15.20;;;6.63;;
71610;SDS011;59459;51.172;6.682;2023-03-21T05:58:07;15.00;;;6.00;;
71610;SDS011;59459;51.172;6.682;2023-03-21T06:00:32;15.02;;;6.07;;
71610;SDS011;59459;51.172;6.682;2023-03-21T06:02:58;18.30;;;6.47;;
71610;SDS011;59459;51.172;6.682;2023-03-21T06:05:23;17.37;;;6.73;;
71610;SDS011;59459;51.172;6.682;2023-03-21T06:07:48;16.63;;;6.50;;
71610;SDS011;59459;51.172;6.682;2023-03-21T06:10:13;15.50;;;5.57;;
71610;SDS011;59459;51.172;6.682;2023-03-21T06:12:39;15.70;;;5.60;;
71610;SDS011;59459;51.172;6.682;2023-03-21T06:15:04;15.90;;;5.77;;
71610;SDS011;59459;51.172;6.682;2023-03-21T06:17:30;18.05;;;5.70;;
71610;SDS011;59459;51.172;6.682;2023-03-21T06:19:56;25.43;;;6.87;;
71610;SDS011;59459;51.172;6.682;2023-03-21T06:22:21;15.57;;;6.67;;
71610;SDS011;59459;51.172;6.682;2023-03-21T06:24:46;17.70;;;5.80;;
71610;SDS011;59459;51.172;6.682;2023-03-21T06:27:12;15.15;;;5.97;;
71610;SDS011;59459;51.172;6.682;2023-03-21T06:29:37;18.47;;;5.47;;
71610;SDS011;59459;51.172;6.682;2023-03-21T06:32:02;13.80;;;5.00;;
71610;SDS011;59459;51.172;6.682;2023-03-21T06:34:28;18.97;;;6.83;;
71610;SDS011;59459;51.172;6.682;2023-03-21T06:36:53;16.97;;;6.20;;
71610;SDS011;59459;51.172;6.682;2023-03-21T06:39:18;13.50;;;5.77;;
71610;SDS011;59459;51.172;6.682;2023-03-21T06:41:44;14.45;;;5.78;;
71610;SDS011;59459;51.172;6.682;2023-03-21T06:44:09;17.70;;;5.53;;
71610;SDS011;59459;51.172;6.682;2023-03-21T06:46:34;14.13;;;6.07;;
71610;SDS011;59459;51.172;6.682;2023-03-21T06:49:00;17.50;;;6.10;;
71610;SDS011;59459;51.172;6.682;2023-03-21T06:51:25;13.47;;;5.13;;
71610;SDS011;59459;51.172;6.682;2023-03-21T06:53:50;16.83;;;5.53;;
71610;SDS011;59459;51.172;6.682;2023-03-21T06:56:15;17.53;;;5.17;;
71610;SDS011;59459;51.172;6.682;2023-03-21T06:58:43;14.60;;;5.10;;
71610;SDS011;59459;51.172;6.682;2023-03-21T07:01:08;15.23;;;6.30;;
71610;SDS011;59459;51.172;6.682;2023-03-21T07:03:33;15.00;;;5.17;;
71610;SDS011;59459;51.172;6.682;2023-03-21T07:06:02;13.60;;;5.50;;
71610;SDS011;59459;51.172;6.682;2023-03-21T07:08:28;18.52;;;6.05;;
71610;SDS011;59459;51.172;6.682;2023-03-21T07:10:54;14.83;;;5.60;;
71610;SDS011;59459;51.172;6.682;2023-03-21T07:13:20;17.02;;;5.28;;
71610;SDS011;59459;51.172;6.682;2023-03-21T07:15:45;14.47;;;4.83;;
71610;SDS011;59459;51.172;6.682;2023-03-21T07:18:10;12.90;;;4.80;;
71610;SDS011;59459;51.172;6.682;2023-03-21T07:20:35;14.17;;;4.80;;
71610;SDS011;59459;51.172;6.682;2023-03-21T07:23:04;15.10;;;5.93;;
71610;SDS011;59459;51.172;6.682;2023-03-21T07:25:29;14.15;;;4.53;;
71610;SDS011;59459;51.172;6.682;2023-03-21T07:27:54;12.93;;;4.90;;
71610;SDS011;59459;51.172;6.682;2023-03-21T07:30:20;15.00;;;4.47;;
71610;SDS011;59459;51.172;6.682;2023-03-21T07:32:45;12.33;;;4.30;;
71610;SDS011;59459;51.172;6.682;2023-03-21T07:35:12;9.48;;;3.85;;
71610;SDS011;59459;51.172;6.682;2023-03-21T07:37:38;12.95;;;4.50;;
71610;SDS011;59459;51.172;6.682;2023-03-21T07:40:03;11.30;;;4.17;;
71610;SDS011;59459;51.172;6.682;2023-03-21T07:42:35;12.85;;;4.30;;
71610;SDS011;59459;51.172;6.682;2023-03-21T07:45:00;13.15;;;4.78;;
71610;SDS011;59459;51.172;6.682;2023-03-21T07:47:25;11.87;;;3.80;;
71610;SDS011;59459;51.172;6.682;2023-03-21T07:49:50;13.03;;;4.77;;
71610;SDS011;59459;51.172;6.682;2023-03-21T07:52:16;13.97;;;5.00;;
71610;SDS011;59459;51.172;6.682;2023-03-21T07:54:41;16.83;;;4.80;;
71610;SDS011;59459;51.172;6.682;2023-03-21T07:57:06;14.30;;;5.10;;
71610;SDS011;59459;51.172;6.682;2023-03-21T07:59:31;15.43;;;5.33;;
71610;SDS011;59459;51.172;6.682;2023-03-21T08:01:57;16.00;;;5.43;;
71610;SDS011;59459;51.172;6.682;2023-03-21T08:04:22;14.97;;;5.47;;
71610;SDS011;59459;51.172;6.682;2023-03-21T08:06:48;13.67;;;4.67;;
71610;SDS011;59459;51.172;6.682;2023-03-21T08:09:14;12.65;;;5.25;;
71610;SDS011;59459;51.172;6.682;2023-03-21T08:11:39;17.37;;;5.33;;
71610;SDS011;59459;51.172;6.682;2023-03-21T08:14:05;17.63;;;5.60;;
71610;SDS011;59459;51.172;6.682;2023-03-21T08:16:30;13.10;;;4.77;;
71610;SDS011;59459;51.172;6.682;2023-03-21T08:18:55;11.70;;;4.63;;
71610;SDS011;59459;51.172;6.682;2023-03-21T08:21:20;11.57;;;4.90;;
71610;SDS011;59459;51.172;6.682;2023-03-21T08:23:46;12.20;;;4.67;;
71610;SDS011;59459;51.172;6.682;2023-03-21T08:26:11;15.90;;;5.00;;
71610;SDS011;59459;51.172;6.682;2023-03-21T08:28:42;15.43;;;5.63;;
71610;SDS011;59459;51.172;6.682;2023-03-21T08:31:08;15.67;;;5.87;;
71610;SDS011;59459;51.172;6.682;2023-03-21T08:33:34;14.48;;;5.35;;
71610;SDS011;59459;51.172;6.682;2023-03-21T08:35:59;22.13;;;6.47;;
71610;SDS011;59459;51.172;6.682;2023-03-21T08:38:25;14.37;;;5.47;;
71610;SDS011;59459;51.172;6.682;2023-03-21T08:40:53;14.07;;;6.00;;
71610;SDS011;59459;51.172;6.682;2023-03-21T08:43:18;18.43;;;5.50;;
71610;SDS011;59459;51.172;6.682;2023-03-21T08:45:44;16.20;;;6.40;;
71610;SDS011;59459;51.172;6.682;2023-03-21T08:48:09;18.53;;;6.07;;
71610;SDS011;59459;51.172;6.682;2023-03-21T08:50:34;17.00;;;6.50;;
71610;SDS011;59459;51.172;6.682;2023-03-21T08:53:00;24.35;;;6.78;;
71610;SDS011;59459;51.172;6.682;2023-03-21T08:55:25;14.60;;;6.13;;
71610;SDS011;59459;51.172;6.682;2023-03-21T08:57:50;18.03;;;5.97;;
71610;SDS011;59459;51.172;6.682;2023-03-21T09:00:16;19.03;;;6.53;;
71610;SDS011;59459;51.172;6.682;2023-03-21T09:02:43;17.95;;;6.45;;
71610;SDS011;59459;51.172;6.682;2023-03-21T09:05:09;14.43;;;5.67;;
71610;SDS011;59459;51.172;6.682;2023-03-21T09:07:35;14.88;;;5.97;;
71610;SDS011;59459;51.172;6.682;2023-03-21T09:10:02;16.08;;;5.90;;
71610;SDS011;59459;51.172;6.682;2023-03-21T09:12:28;14.87;;;5.47;;
71610;SDS011;59459;51.172;6.682;2023-03-21T09:14:53;15.43;;;5.72;;
71610;SDS011;59459;51.172;6.682;2023-03-21T09:17:18;15.73;;;6.00;;
71610;SDS011;59459;51.172;6.682;2023-03-21T09:19:44;20.63;;;6.30;;
71610;SDS011;59459;51.172;6.682;2023-03-21T09:22:11;17.23;;;6.10;;
71610;SDS011;59459;51.172;6.682;2023-03-21T09:24:41;16.40;;;6.40;;
71610;SDS011;59459;51.172;6.682;2023-03-21T09:27:07;14.90;;;6.17;;
71610;SDS011;59459;51.172;6.682;2023-03-21T09:29:32;19.27;;;7.00;;
71610;SDS011;59459;51.172;6.682;2023-03-21T09:31:58;15.40;;;6.63;;
71610;SDS011;59459;51.172;6.682;2023-03-21T09:34:23;20.07;;;6.77;;
71610;SDS011;59459;51.172;6.682;2023-03-21T09:36:50;15.07;;;6.45;;
71610;SDS011;59459;51.172;6.682;2023-03-21T09:39:20;16.50;;;6.75;;
71610;SDS011;59459;51.172;6.682;2023-03-21T09:44:33;18.88;;;6.35;;
71610;SDS011;59459;51.172;6.682;2023-03-21T09:49:34;17.38;;;7.07;;
71610;SDS011;59459;51.172;6.682;2023-03-21T09:52:03;14.13;;;6.13;;
71610;SDS011;59459;51.172;6.682;2023-03-21T09:54:32;16.33;;;6.50;;
71610;SDS011;59459;51.172;6.682;2023-03-21T09:57:01;18.60;;;6.38;;
71610;SDS011;59459;51.172;6.682;2023-03-21T09:59:31;16.90;;;6.95;;
71610;SDS011;59459;51.172;6.682;2023-03-21T10:02:14;13.68;;;6.25;;
71610;SDS011;59459;51.172;6.682;2023-03-21T10:04:44;15.38;;;6.05;;
71610;SDS011;59459;51.172;6.682;2023-03-21T10:07:10;18.13;;;6.77;;
71610;SDS011;59459;51.172;6.682;2023-03-21T10:09:42;15.10;;;6.32;;
71610;SDS011;59459;51.172;6.682;2023-03-21T10:12:12;14.38;;;6.20;;
71610;SDS011;59459;51.172;6.682;2023-03-21T10:14:49;14.55;;;6.22;;
71610;SDS011;59459;51.172;6.682;2023-03-21T10:19:40;15.85;;;6.00;;
71610;SDS011;59459;51.172;6.682;2023-03-21T10:22:10;14.33;;;6.00;;
71610;SDS011;59459;51.172;6.682;2023-03-21T10:24:35;20.17;;;6.40;;
71610;SDS011;59459;51.172;6.682;2023-03-21T10:27:00;15.53;;;5.43;;
71610;SDS011;59459;51.172;6.682;2023-03-21T10:29:29;15.82;;;6.97;;
71610;SDS011;59459;51.172;6.682;2023-03-21T10:31:55;14.40;;;5.85;;
71610;SDS011;59459;51.172;6.682;2023-03-21T10:34:26;14.87;;;5.83;;
71610;SDS011;59459;51.172;6.682;2023-03-21T10:36:52;16.17;;;4.70;;
71610;SDS011;59459;51.172;6.682;2023-03-21T10:41:45;14.73;;;5.38;;
71610;SDS011;59459;51.172;6.682;2023-03-21T10:44:12;13.73;;;5.80;;
71610;SDS011;59459;51.172;6.682;2023-03-21T10:46:38;13.63;;;4.68;;
71610;SDS011;59459;51.172;6.682;2023-03-21T10:49:14;12.60;;;4.50;;
71610;SDS011;59459;51.172;6.682;2023-03-21T10:51:40;14.23;;;5.20;;
71610;SDS011;59459;51.172;6.682;2023-03-21T10:54:11;12.40;;;5.10;;
71610;SDS011;59459;51.172;6.682;2023-03-21T10:56:39;16.55;;;5.97;;
71610;SDS011;59459;51.172;6.682;2023-03-21T10:59:07;11.40;;;5.32;;
71610;SDS011;59459;51.172;6.682;2023-03-21T11:01:39;11.03;;;4.87;;
71610;SDS011;59459;51.172;6.682;2023-03-21T11:04:09;14.77;;;5.10;;
71610;SDS011;59459;51.172;6.682;2023-03-21T11:06:38;13.45;;;5.20;;
71610;SDS011;59459;51.172;6.682;2023-03-21T11:09:11;12.70;;;5.15;;
71610;SDS011;59459;51.172;6.682;2023-03-21T11:11:39;14.87;;;4.90;;
71610;SDS011;59459;51.172;6.682;2023-03-21T11:14:05;14.30;;;5.20;;
71610;SDS011;59459;51.172;6.682;2023-03-21T11:16:38;13.15;;;5.72;;
71610;SDS011;59459;51.172;6.682;2023-03-21T11:19:17;11.88;;;4.93;;
71610;SDS011;59459;51.172;6.682;2023-03-21T11:21:43;12.05;;;5.47;;
71610;SDS011;59459;51.172;6.682;2023-03-21T11:24:12;11.77;;;5.13;;
71610;SDS011;59459;51.172;6.682;2023-03-21T11:26:39;14.30;;;5.72;;
71610;SDS011;59459;51.172;6.682;2023-03-21T11:29:10;15.20;;;5.15;;
71610;SDS011;59459;51.172;6.682;2023-03-21T11:31:38;12.20;;;5.27;;
71610;SDS011;59459;51.172;6.682;2023-03-21T11:34:05;9.30;;;3.95;;
71610;SDS011;59459;51.172;6.682;2023-03-21T11:36:35;11.13;;;4.32;;
71610;SDS011;59459;51.172;6.682;2023-03-21T11:41:47;11.53;;;4.27;;
71610;SDS011;59459;51.172;6.682;2023-03-21T11:44:25;10.07;;;4.40;;
71610;SDS011;59459;51.172;6.682;2023-03-21T11:46:51;9.68;;;3.97;;
71610;SDS011;59459;51.172;6.682;2023-03-21T11:49:16;10.03;;;4.23;;
71610;SDS011;59459;51.172;6.682;2023-03-21T11:56:39;11.52;;;5.00;;
71610;SDS011;59459;51.172;6.682;2023-03-21T11:59:12;13.23;;;4.78;;
71610;SDS011;59459;51.172;6.682;2023-03-21T12:01:46;14.00;;;5.10;;
71610;SDS011;59459;51.172;6.682;2023-03-21T12:06:50;15.18;;;4.93;;
71610;SDS011;59459;51.172;6.682;2023-03-21T12:14:11;13.23;;;5.80;;
71610;SDS011;59459;51.172;6.682;2023-03-21T12:20:01;20.30;;;5.88;;
71610;SDS011;59459;51.172;6.682;2023-03-21T12:24:41;14.20;;;6.67;;
71610;SDS011;59459;51.172;6.682;2023-03-21T12:42:56;12.07;;;5.28;;
71610;SDS011;59459;51.172;6.682;2023-03-21T12:45:31;13.80;;;5.97;;
71610;SDS011;59459;51.172;6.682;2023-03-21T12:50:43;12.02;;;5.50;;
71610;SDS011;59459;51.172;6.682;2023-03-21T12:55:40;10.70;;;5.68;;
71610;SDS011;59459;51.172;6.682;2023-03-21T12:58:10;11.83;;;5.13;;
71610;SDS011;59459;51.172;6.682;2023-03-21T13:01:01;13.60;;;5.97;;
71610;SDS011;59459;51.172;6.682;2023-03-21T13:03:35;12.25;;;4.88;;
71610;SDS011;59459;51.172;6.682;2023-03-21T13:06:05;11.38;;;5.47;;
71610;SDS011;59459;51.172;6.682;2023-03-21T13:11:00;12.73;;;6.20;;
71610;SDS011;59459;51.172;6.682;2023-03-21T13:16:03;10.27;;;5.18;;
71610;SDS011;59459;51.172;6.682;2023-03-21T13:18:43;11.38;;;5.65;;
71610;SDS011;59459;51.172;6.682;2023-03-21T13:21:13;13.83;;;4.90;;
71610;SDS011;59459;51.172;6.682;2023-03-21T13:23:45;10.95;;;5.13;;
71610;SDS011;59459;51.172;6.682;2023-03-21T13:26:18;10.27;;;4.43;;
71610;SDS011;59459;51.172;6.682;2023-03-21T13:28:43;12.63;;;4.40;;
71610;SDS011;59459;51.172;6.682;2023-03-21T13:33:47;11.13;;;4.90;;
71610;SDS011;59459;51.172;6.682;2023-03-21T13:36:13;10.17;;;4.30;;
71610;SDS011;59459;51.172;6.682;2023-03-21T13:38:39;12.75;;;4.95;;
71610;SDS011;59459;51.172;6.682;2023-03-21T13:41:14;11.52;;;5.03;;
71610;SDS011;59459;51.172;6.682;2023-03-21T13:54:02;9.38;;;4.30;;
71610;SDS011;59459;51.172;6.682;2023-03-21T13:56:28;11.90;;;4.00;;
71610;SDS011;59459;51.172;6.682;2023-03-21T13:58:58;8.20;;;4.05;;
71610;SDS011;59459;51.172;6.682;2023-03-21T14:01:30;8.23;;;4.47;;
71610;SDS011;59459;51.172;6.682;2023-03-21T14:03:57;10.05;;;4.40;;
71610;SDS011;59459;51.172;6.682;2023-03-21T14:06:23;8.75;;;4.22;;
71610;SDS011;59459;51.172;6.682;2023-03-21T14:08:50;10.80;;;4.57;;
71610;SDS011;59459;51.172;6.682;2023-03-21T14:11:16;11.57;;;4.38;;
71610;SDS011;59459;51.172;6.682;2023-03-21T14:13:42;11.37;;;4.20;;
71610;SDS011;59459;51.172;6.682;2023-03-21T14:16:13;10.00;;;4.18;;
71610;SDS011;59459;51.172;6.682;2023-03-21T14:18:46;10.48;;;4.40;;
71610;SDS011;59459;51.172;6.682;2023-03-21T14:21:13;14.43;;;4.55;;
71610;SDS011;59459;51.172;6.682;2023-03-21T14:23:39;10.27;;;4.43;;
71610;SDS011;59459;51.172;6.682;2023-03-21T14:26:04;9.60;;;4.30;;
71610;SDS011;59459;51.172;6.682;2023-03-21T14:28:30;11.03;;;5.07;;
71610;SDS011;59459;51.172;6.682;2023-03-21T14:31:00;9.80;;;4.60;;
71610;SDS011;59459;51.172;6.682;2023-03-21T14:33:34;10.35;;;4.32;;
71610;SDS011;59459;51.172;6.682;2023-03-21T14:36:03;9.77;;;4.20;;
71610;SDS011;59459;51.172;6.682;2023-03-21T14:38:34;12.13;;;4.50;;
71610;SDS011;59459;51.172;6.682;2023-03-21T14:41:00;10.88;;;4.60;;
71610;SDS011;59459;51.172;6.682;2023-03-21T14:43:26;11.87;;;4.80;;
71610;SDS011;59459;51.172;6.682;2023-03-21T14:45:52;9.85;;;4.22;;
71610;SDS011;59459;51.172;6.682;2023-03-21T14:48:18;10.35;;;4.43;;
71610;SDS011;59459;51.172;6.682;2023-03-21T14:50:47;11.67;;;4.40;;
71610;SDS011;59459;51.172;6.682;2023-03-21T14:55:45;9.60;;;4.93;;
71610;SDS011;59459;51.172;6.682;2023-03-21T14:58:12;10.48;;;4.53;;
71610;SDS011;59459;51.172;6.682;2023-03-21T15:00:38;11.07;;;4.13;;
71610;SDS011;59459;51.172;6.682;2023-03-21T15:03:03;8.15;;;3.95;;
71610;SDS011;59459;51.172;6.682;2023-03-21T15:05:32;9.93;;;3.93;;
71610;SDS011;59459;51.172;6.682;2023-03-21T15:10:27;9.60;;;4.33;;
71610;SDS011;59459;51.172;6.682;2023-03-21T15:12:56;8.65;;;4.07;;
71610;SDS011;59459;51.172;6.682;2023-03-21T15:15:22;9.48;;;3.95;;
71610;SDS011;59459;51.172;6.682;2023-03-21T15:17:48;11.23;;;4.68;;
71610;SDS011;59459;51.172;6.682;2023-03-21T15:20:16;9.55;;;3.90;;
71610;SDS011;59459;51.172;6.682;2023-03-21T15:22:44;9.20;;;4.00;;
71610;SDS011;59459;51.172;6.682;2023-03-21T15:25:11;9.23;;;4.57;;
71610;SDS011;59459;51.172;6.682;2023-03-21T15:27:40;8.50;;;4.10;;
71610;SDS011;59459;51.172;6.682;2023-03-21T15:30:06;11.43;;;4.07;;
71610;SDS011;59459;51.172;6.682;2023-03-21T15:32:31;10.02;;;4.00;;
71610;SDS011;59459;51.172;6.682;2023-03-21T15:35:06;8.88;;;3.92;;
71610;SDS011;59459;51.172;6.682;2023-03-21T15:37:33;11.30;;;4.73;;
71610;SDS011;59459;51.172;6.682;2023-03-21T15:45:44;13.00;;;4.38;;
71610;SDS011;59459;51.172;6.682;2023-03-21T15:48:11;10.43;;;5.22;;
71610;SDS011;59459;51.172;6.682;2023-03-21T15:50:40;10.47;;;4.53;;
71610;SDS011;59459;51.172;6.682;2023-03-21T15:53:15;9.07;;;4.30;;
71610;SDS011;59459;51.172;6.682;2023-03-21T15:55:42;9.55;;;4.95;;
71610;SDS011;59459;51.172;6.682;2023-03-21T15:58:13;10.18;;;4.00;;
71610;SDS011;59459;51.172;6.682;2023-03-21T16:00:40;14.57;;;4.47;;
71610;SDS011;59459;51.172;6.682;2023-03-21T16:03:09;9.60;;;4.27;;
71610;SDS011;59459;51.172;6.682;2023-03-21T16:05:37;10.07;;;4.35;;
71610;SDS011;59459;51.172;6.682;2023-03-21T16:08:04;9.73;;;4.20;;
71610;SDS011;59459;51.172;6.682;2023-03-21T16:10:37;9.93;;;4.20;;
71610;SDS011;59459;51.172;6.682;2023-03-21T16:13:03;9.35;;;4.20;;
71610;SDS011;59459;51.172;6.682;2023-03-21T16:15:29;12.95;;;4.40;;
71610;SDS011;59459;51.172;6.682;2023-03-21T16:17:58;10.07;;;4.63;;
71610;SDS011;59459;51.172;6.682;2023-03-21T16:20:25;10.10;;;4.40;;
71610;SDS011;59459;51.172;6.682;2023-03-21T16:22:51;13.27;;;5.13;;
71610;SDS011;59459;51.172;6.682;2023-03-21T16:25:16;10.70;;;4.30;;
71610;SDS011;59459;51.172;6.682;2023-03-21T16:27:42;8.47;;;4.20;;